createdAt,value
2019-05-28T00:01:33.594Z,13.94
2019-05-28T00:04:00.289Z,13.97
2019-05-28T00:06:26.882Z,14.00
2019-05-28T00:08:53.443Z,14.05
2019-05-28T00:11:19.987Z,14.07
2019-05-28T00:13:46.730Z,14.07
2019-05-28T00:16:13.479Z,14.07
2019-05-28T00:18:40.290Z,14.07
2019-05-28T00:21:06.857Z,14.06
2019-05-28T00:23:33.387Z,14.08
2019-05-28T00:26:02.578Z,14.11
2019-05-28T00:28:29.095Z,14.12
2019-05-28T00:30:55.622Z,14.10
2019-05-28T00:33:22.485Z,14.09
2019-05-28T00:35:49.063Z,14.08
2019-05-28T00:38:15.627Z,14.06
2019-05-28T00:40:42.144Z,14.00
2019-05-28T00:43:08.708Z,13.98
2019-05-28T00:45:35.529Z,13.96
2019-05-28T00:48:02.029Z,13.93
2019-05-28T00:50:28.836Z,13.90
2019-05-28T00:52:55.374Z,13.84
2019-05-28T00:55:22.391Z,13.80
2019-05-28T00:57:50.146Z,13.77
2019-05-28T01:00:36.231Z,13.79
2019-05-28T01:02:50.384Z,13.80
2019-05-28T01:05:17.172Z,13.77
2019-05-28T01:07:43.963Z,13.81
2019-05-28T01:10:12.002Z,13.85
2019-05-28T01:12:38.472Z,13.88
2019-05-28T01:15:06.157Z,13.90
2019-05-28T01:17:32.783Z,13.89
2019-05-28T01:19:59.783Z,13.86
2019-05-28T01:22:26.562Z,13.83
2019-05-28T01:24:53.030Z,13.82
2019-05-28T01:27:19.977Z,13.81
2019-05-28T01:29:46.526Z,13.82
2019-05-28T01:32:13.286Z,13.86
2019-05-28T01:34:39.737Z,13.86
2019-05-28T01:37:06.311Z,13.87
2019-05-28T01:39:32.809Z,13.92
2019-05-28T01:41:59.567Z,13.95
2019-05-28T01:44:26.117Z,13.96
2019-05-28T01:46:52.590Z,13.96
2019-05-28T01:49:19.564Z,13.95
2019-05-28T01:51:46.386Z,13.93
2019-05-28T01:54:12.930Z,13.95
2019-05-28T01:56:39.452Z,13.94
2019-05-28T01:59:07.069Z,13.91
2019-05-28T02:01:33.719Z,13.88
2019-05-28T02:04:00.211Z,13.84
2019-05-28T02:06:26.867Z,13.79
2019-05-28T02:08:53.513Z,13.79
2019-05-28T02:11:20.128Z,13.81
2019-05-28T02:13:46.603Z,13.78
2019-05-28T02:16:13.155Z,13.77
2019-05-28T02:18:39.709Z,13.74
2019-05-28T02:21:06.292Z,13.75
2019-05-28T02:23:32.906Z,13.71
2019-05-28T02:25:59.395Z,13.73
2019-05-28T02:28:25.872Z,13.72
2019-05-28T02:30:52.405Z,13.70
2019-05-28T02:33:18.873Z,13.65
2019-05-28T02:35:45.431Z,13.64
2019-05-28T02:38:12.925Z,13.66
2019-05-28T02:40:39.392Z,13.66
2019-05-28T02:43:06.067Z,13.67
2019-05-28T02:45:32.821Z,13.64
2019-05-28T02:47:59.570Z,13.59
2019-05-28T02:50:55.594Z,13.50
2019-05-28T02:53:22.575Z,13.49
2019-05-28T02:55:50.281Z,13.46
2019-05-28T02:58:17.270Z,13.46
2019-05-28T03:00:44.576Z,13.45
2019-05-28T03:03:13.242Z,13.44
2019-05-28T03:05:40.393Z,13.44
2019-05-28T03:08:09.073Z,13.44
2019-05-28T03:11:00.377Z,13.46
2019-05-28T03:13:05.941Z,13.48
2019-05-28T03:15:33.693Z,13.46
2019-05-28T03:18:00.557Z,13.48
2019-05-28T03:20:27.457Z,13.48
2019-05-28T03:22:54.395Z,13.48
2019-05-28T03:25:21.678Z,13.48
2019-05-28T03:27:48.402Z,13.50
2019-05-28T03:30:15.168Z,13.49
2019-05-28T03:32:41.943Z,13.49
2019-05-28T03:35:08.651Z,13.50
2019-05-28T03:37:35.873Z,13.51
2019-05-28T03:40:04.382Z,13.50
2019-05-28T03:42:31.489Z,13.50
2019-05-28T03:44:58.572Z,13.51
2019-05-28T03:47:25.340Z,13.51
2019-05-28T03:49:51.915Z,13.50
2019-05-28T03:52:18.705Z,13.45
2019-05-28T03:54:45.341Z,13.42
2019-05-28T03:57:12.135Z,13.36
2019-05-28T03:59:39.849Z,13.32
2019-05-28T04:02:22.579Z,13.30
2019-05-28T04:04:36.182Z,13.29
2019-05-28T04:07:03.105Z,13.31
2019-05-28T04:09:33.739Z,13.34
2019-05-28T04:11:58.835Z,13.33
2019-05-28T04:14:25.424Z,13.35
2019-05-28T04:16:52.103Z,13.37
2019-05-28T04:19:18.599Z,13.38
2019-05-28T04:21:45.298Z,13.37
2019-05-28T04:24:11.918Z,13.34
2019-05-28T04:26:38.675Z,13.31
2019-05-28T04:29:05.220Z,13.26
2019-05-28T04:31:32.111Z,13.25
2019-05-28T04:33:58.845Z,13.29
2019-05-28T04:38:58.155Z,13.25
2019-05-28T04:41:25.101Z,13.23
2019-05-28T04:43:51.609Z,13.28
2019-05-28T04:46:19.226Z,13.34
2019-05-28T04:48:45.859Z,13.35
2019-05-28T04:51:12.430Z,13.34
2019-05-28T04:53:40.977Z,13.38
2019-05-28T04:56:07.676Z,13.39
2019-05-28T04:58:34.202Z,13.41
2019-05-28T05:01:05.604Z,13.44
2019-05-28T05:03:32.209Z,13.49
2019-05-28T05:06:00.000Z,13.57
2019-05-28T05:08:26.574Z,13.67
2019-05-28T05:10:53.214Z,13.77
2019-05-28T05:13:19.698Z,13.82
2019-05-28T05:15:47.192Z,13.85
2019-05-28T05:18:14.523Z,13.84
2019-05-28T05:20:41.273Z,13.85
2019-05-28T05:23:08.166Z,13.85
2019-05-28T05:25:34.777Z,13.97
2019-05-28T05:28:01.564Z,14.09
2019-05-28T05:30:28.455Z,14.18
2019-05-28T05:32:54.981Z,14.22
2019-05-28T05:35:21.996Z,14.25
2019-05-28T05:37:49.500Z,14.20
2019-05-28T05:40:16.295Z,14.25
2019-05-28T05:42:43.544Z,14.24
2019-05-28T05:45:10.438Z,14.29
2019-05-28T05:47:37.393Z,14.40
2019-05-28T05:50:04.881Z,14.54
2019-05-28T05:52:31.569Z,14.56
2019-05-28T05:54:58.204Z,14.56
2019-05-28T05:57:25.157Z,14.65
2019-05-28T05:59:51.956Z,14.68
2019-05-28T06:02:19.597Z,14.69
2019-05-28T06:04:46.224Z,14.72
2019-05-28T06:07:12.815Z,14.77
2019-05-28T06:09:39.638Z,14.85
2019-05-28T06:12:06.141Z,14.94
2019-05-28T06:14:33.113Z,15.02
2019-05-28T06:16:59.658Z,14.94
2019-05-28T06:19:26.311Z,15.07
2019-05-28T06:21:53.033Z,15.17
2019-05-28T06:24:19.539Z,15.26
2019-05-28T06:26:46.287Z,15.26
2019-05-28T06:29:13.512Z,15.14
2019-05-28T06:31:40.020Z,15.10
2019-05-28T06:34:06.643Z,15.05
2019-05-28T06:36:34.567Z,15.12
2019-05-28T06:39:01.624Z,15.04
2019-05-28T06:41:28.113Z,14.95
2019-05-28T06:43:54.780Z,14.90
2019-05-28T06:46:21.319Z,14.98
2019-05-28T06:48:48.963Z,15.01
2019-05-28T06:51:15.772Z,15.11
2019-05-28T06:53:42.493Z,15.07
2019-05-28T06:56:09.832Z,15.22
2019-05-28T06:58:39.915Z,15.38
2019-05-28T07:01:05.779Z,15.32
2019-05-28T07:03:36.223Z,15.48
2019-05-28T07:06:07.190Z,15.59
2019-05-28T07:08:32.487Z,15.64
2019-05-28T07:10:59.198Z,15.48
2019-05-28T07:13:25.914Z,15.54
2019-05-28T07:15:52.631Z,15.68
2019-05-28T07:18:19.176Z,15.68
2019-05-28T07:20:45.825Z,15.76
2019-05-28T07:23:12.366Z,15.84
2019-05-28T07:25:38.974Z,15.78
2019-05-28T07:28:10.794Z,15.80
2019-05-28T07:30:34.510Z,16.02
2019-05-28T07:33:01.234Z,16.29
2019-05-28T07:35:42.630Z,16.38
2019-05-28T07:37:57.093Z,16.39
2019-05-28T07:40:31.731Z,16.29
2019-05-28T07:42:53.592Z,16.49
2019-05-28T07:45:20.256Z,16.47
2019-05-28T07:47:47.102Z,16.40
2019-05-28T07:50:13.974Z,16.40
2019-05-28T07:52:40.596Z,16.48
2019-05-28T07:55:08.364Z,16.58
2019-05-28T07:57:35.083Z,16.56
2019-05-28T08:00:05.808Z,16.77
2019-05-28T08:02:32.919Z,16.86
2019-05-28T08:04:59.951Z,16.88
2019-05-28T08:07:26.846Z,16.76
2019-05-28T08:09:53.425Z,16.77
2019-05-28T08:12:20.106Z,16.77
2019-05-28T08:14:46.694Z,16.51
2019-05-28T08:17:13.541Z,16.42
2019-05-28T08:19:40.066Z,16.60
2019-05-28T08:22:06.897Z,16.60
2019-05-28T08:24:33.436Z,16.79
2019-05-28T08:27:03.444Z,16.79
2019-05-28T08:29:30.230Z,16.66
2019-05-28T08:31:57.002Z,16.67
2019-05-28T08:34:23.688Z,16.94
2019-05-28T08:37:04.388Z,16.94
2019-05-28T08:39:21.097Z,16.92
2019-05-28T08:41:55.932Z,16.77
2019-05-28T08:44:34.969Z,16.88
2019-05-28T08:47:10.669Z,16.88
2019-05-28T08:49:37.387Z,17.05
2019-05-28T08:52:04.081Z,16.82
2019-05-28T08:54:30.912Z,17.13
2019-05-28T08:56:57.619Z,17.11
2019-05-28T08:59:24.523Z,16.92
2019-05-28T09:01:51.167Z,17.14
2019-05-28T09:04:17.937Z,17.14
2019-05-28T09:06:44.633Z,17.33
2019-05-28T09:09:11.638Z,17.29
2019-05-28T09:11:38.322Z,17.44
2019-05-28T09:14:05.214Z,17.75
2019-05-28T09:16:31.857Z,17.97
2019-05-28T09:18:58.568Z,17.89
2019-05-28T09:21:25.370Z,18.01
2019-05-28T09:23:52.196Z,17.87
2019-05-28T09:26:19.715Z,18.17
2019-05-28T09:28:46.383Z,18.04
2019-05-28T09:31:13.041Z,17.99
2019-05-28T09:33:39.536Z,18.30
2019-05-28T09:36:08.484Z,17.88
2019-05-28T09:38:35.522Z,18.17
2019-05-28T09:41:05.758Z,18.17
2019-05-28T09:43:31.360Z,18.46
2019-05-28T09:45:58.204Z,18.49
2019-05-28T09:48:25.488Z,18.74
2019-05-28T09:50:52.111Z,19.11
2019-05-28T09:53:18.953Z,18.83
2019-05-28T09:55:45.904Z,18.62
2019-05-28T09:58:12.568Z,18.85
2019-05-28T10:00:56.678Z,19.00
2019-05-28T10:03:08.768Z,19.00
2019-05-28T10:05:35.377Z,19.20
2019-05-28T10:08:02.279Z,19.14
2019-05-28T10:10:31.672Z,19.13
2019-05-28T10:12:59.301Z,19.16
2019-05-28T10:15:30.466Z,19.35
2019-05-28T10:17:57.427Z,19.31
2019-05-28T10:20:28.137Z,18.96
2019-05-28T10:22:58.919Z,18.38
2019-05-28T10:25:26.569Z,18.62
2019-05-28T10:28:00.866Z,18.72
2019-05-28T10:30:26.453Z,18.51
2019-05-28T10:32:52.971Z,18.36
2019-05-28T10:37:59.412Z,18.44
2019-05-28T10:40:27.311Z,18.57
2019-05-28T10:42:54.044Z,18.47
2019-05-28T10:45:20.733Z,18.61
2019-05-28T10:47:47.308Z,18.66
2019-05-28T10:50:20.125Z,18.83
2019-05-28T10:52:46.631Z,18.65
2019-05-28T10:55:15.902Z,18.88
2019-05-28T10:57:42.840Z,19.04
2019-05-28T11:00:34.059Z,18.98
2019-05-28T11:03:01.390Z,19.03
2019-05-28T11:05:28.066Z,19.15
2019-05-28T11:07:56.179Z,18.94
2019-05-28T11:10:24.804Z,19.07
2019-05-28T11:12:51.556Z,19.27
2019-05-28T11:15:19.119Z,19.73
2019-05-28T11:17:45.834Z,19.56
2019-05-28T11:20:13.214Z,20.23
2019-05-28T11:22:39.927Z,20.11
2019-05-28T11:25:07.364Z,20.40
2019-05-28T11:27:33.958Z,20.05
2019-05-28T11:30:01.495Z,19.73
2019-05-28T11:32:28.116Z,19.94
2019-05-28T11:34:55.260Z,19.90
2019-05-28T11:37:21.936Z,19.98
2019-05-28T11:39:48.738Z,20.82
2019-05-28T11:42:15.405Z,21.26
2019-05-28T11:44:42.063Z,21.23
2019-05-28T11:47:08.771Z,21.02
2019-05-28T11:49:35.599Z,20.66
2019-05-28T11:52:03.413Z,20.93
2019-05-28T11:54:29.983Z,20.99
2019-05-28T11:56:56.816Z,21.15
2019-05-28T11:59:23.848Z,21.04
2019-05-28T12:01:50.424Z,21.31
2019-05-28T12:04:17.467Z,21.14
2019-05-28T12:06:44.026Z,20.83
2019-05-28T12:09:10.518Z,21.07
2019-05-28T12:11:37.757Z,21.32
2019-05-28T12:14:04.266Z,20.99
2019-05-28T12:16:33.519Z,20.80
2019-05-28T12:19:00.036Z,20.85
2019-05-28T12:21:32.429Z,21.28
2019-05-28T12:23:59.072Z,21.57
2019-05-28T12:26:25.655Z,21.65
2019-05-28T12:28:52.323Z,21.85
2019-05-28T12:31:18.869Z,21.64
2019-05-28T12:33:45.479Z,21.31
2019-05-28T12:36:14.919Z,21.43
2019-05-28T12:38:41.689Z,21.61
2019-05-28T12:41:08.326Z,21.93
2019-05-28T12:43:39.221Z,21.83
2019-05-28T12:46:05.781Z,21.73
2019-05-28T12:48:32.467Z,21.77
2019-05-28T12:51:02.165Z,21.50
2019-05-28T12:53:48.178Z,21.75
2019-05-28T12:55:56.375Z,21.74
2019-05-28T12:58:41.064Z,21.35
2019-05-28T13:00:52.030Z,20.82
2019-05-28T13:03:23.965Z,20.88
2019-05-28T13:05:50.593Z,20.79
2019-05-28T13:08:17.056Z,20.90
2019-05-28T13:10:43.730Z,21.36
2019-05-28T13:13:10.369Z,21.39
2019-05-28T13:15:41.818Z,21.55
2019-05-28T13:18:05.676Z,21.41
2019-05-28T13:20:32.482Z,21.25
2019-05-28T13:22:59.199Z,21.36
2019-05-28T13:25:25.813Z,21.40
2019-05-28T13:27:52.344Z,21.80
2019-05-28T13:30:19.468Z,21.75
2019-05-28T13:32:46.252Z,21.78
2019-05-28T13:35:13.698Z,21.65
2019-05-28T13:37:40.513Z,21.39
2019-05-28T13:40:08.294Z,21.64
2019-05-28T13:42:34.871Z,21.75
2019-05-28T13:45:01.732Z,21.83
2019-05-28T13:47:33.426Z,21.75
2019-05-28T13:49:57.473Z,21.60
2019-05-28T13:52:24.206Z,21.52
2019-05-28T13:54:51.789Z,21.46
2019-05-28T13:57:18.408Z,21.62
2019-05-28T13:59:44.984Z,21.40
2019-05-28T14:02:11.829Z,21.36
2019-05-28T14:04:38.451Z,20.18
2019-05-28T14:07:05.078Z,19.20
2019-05-28T14:09:31.696Z,18.67
2019-05-28T14:12:00.854Z,17.83
2019-05-28T14:14:27.692Z,17.36
2019-05-28T14:16:54.253Z,17.03
2019-05-28T14:19:21.063Z,16.62
2019-05-28T14:21:57.319Z,16.10
2019-05-28T14:24:24.026Z,15.72
2019-05-28T14:26:51.058Z,15.04
2019-05-28T14:29:17.644Z,15.04
2019-05-28T14:31:44.401Z,14.74
2019-05-28T14:34:11.694Z,14.60
2019-05-28T14:36:38.289Z,14.40
2019-05-28T14:39:06.886Z,14.26
2019-05-28T14:41:33.619Z,14.06
2019-05-28T14:44:01.738Z,13.85
2019-05-28T14:46:28.314Z,13.90
2019-05-28T14:48:55.201Z,13.80
2019-05-28T14:51:22.133Z,13.85
2019-05-28T14:53:49.439Z,14.00
2019-05-28T14:56:16.069Z,14.03
2019-05-28T14:58:42.605Z,14.17
2019-05-28T15:01:09.130Z,14.28
2019-05-28T15:03:35.712Z,14.26
2019-05-28T15:06:02.441Z,14.42
2019-05-28T15:08:30.014Z,14.57
2019-05-28T15:10:56.708Z,14.45
2019-05-28T15:13:23.240Z,14.26
2019-05-28T15:15:49.906Z,14.39
2019-05-28T15:18:19.285Z,14.49
2019-05-28T15:20:46.462Z,14.51
2019-05-28T15:23:13.329Z,14.51
2019-05-28T15:25:40.950Z,14.46
2019-05-28T15:28:08.049Z,14.25
2019-05-28T15:30:35.300Z,14.22
2019-05-28T15:35:15.717Z,14.36
2019-05-28T15:37:42.485Z,14.14
2019-05-28T15:40:10.403Z,14.18
2019-05-28T15:42:37.690Z,14.28
2019-05-28T15:45:04.818Z,14.36
2019-05-28T15:47:31.407Z,14.25
2019-05-28T15:49:58.226Z,14.18
2019-05-28T15:52:27.216Z,14.22
2019-05-28T15:54:54.267Z,14.24
2019-05-28T15:57:20.955Z,14.28
2019-05-28T15:59:47.566Z,14.27
2019-05-28T16:02:24.556Z,14.15
2019-05-28T16:04:52.872Z,14.25
2019-05-28T16:07:19.588Z,14.19
2019-05-28T16:09:56.195Z,14.06
2019-05-28T16:12:15.666Z,13.98
2019-05-28T16:14:42.191Z,13.81
2019-05-28T16:17:15.856Z,13.70
2019-05-28T16:19:42.472Z,13.76
2019-05-28T16:22:09.754Z,13.82
2019-05-28T16:24:36.409Z,13.64
2019-05-28T16:27:04.716Z,13.62
2019-05-28T16:29:34.705Z,13.41
2019-05-28T16:32:04.509Z,13.29
2019-05-28T16:34:31.097Z,13.22
2019-05-28T16:36:57.647Z,13.23
2019-05-28T16:39:24.292Z,13.28
2019-05-28T16:41:51.229Z,13.28
2019-05-28T16:44:18.117Z,13.23
2019-05-28T16:46:45.160Z,13.30
2019-05-28T16:49:12.237Z,13.30
2019-05-28T16:51:39.219Z,13.26
2019-05-28T16:54:18.755Z,13.21
2019-05-28T16:56:34.533Z,13.22
2019-05-28T16:59:16.084Z,13.28
2019-05-28T17:01:48.062Z,13.37
2019-05-28T17:04:15.001Z,13.46
2019-05-28T17:06:42.055Z,13.46
2019-05-28T17:09:08.782Z,13.31
2019-05-28T17:11:36.678Z,13.21
2019-05-28T17:14:03.809Z,13.21
2019-05-28T17:16:30.384Z,13.25
2019-05-28T17:18:57.023Z,13.28
2019-05-28T17:21:23.807Z,13.31
2019-05-28T17:23:50.537Z,13.20
2019-05-28T17:26:17.139Z,13.18
2019-05-28T17:28:43.623Z,13.16
2019-05-28T17:31:10.134Z,13.13
2019-05-28T17:33:36.840Z,13.12
2019-05-28T17:36:05.791Z,13.15
2019-05-28T17:38:32.409Z,13.05
2019-05-28T17:40:59.377Z,13.07
2019-05-28T17:43:26.939Z,13.04
2019-05-28T17:45:53.685Z,12.95
2019-05-28T17:48:21.266Z,12.70
2019-05-28T17:50:47.805Z,12.40
2019-05-28T17:53:15.083Z,12.33
2019-05-28T17:55:46.971Z,12.29
2019-05-28T17:58:14.543Z,12.22
2019-05-28T18:00:41.743Z,12.22
2019-05-28T18:03:08.807Z,12.31
2019-05-28T18:05:35.923Z,12.32
2019-05-28T18:08:02.619Z,12.36
2019-05-28T18:10:29.450Z,12.42
2019-05-28T18:12:57.862Z,12.48
2019-05-28T18:15:24.628Z,12.49
2019-05-28T18:17:51.267Z,12.50
2019-05-28T18:20:18.564Z,12.51
2019-05-28T18:22:45.492Z,12.51
2019-05-28T18:25:12.369Z,12.56
2019-05-28T18:27:39.063Z,12.59
2019-05-28T18:30:06.019Z,12.60
2019-05-28T18:32:32.927Z,12.59
2019-05-28T18:34:59.557Z,12.61
2019-05-28T18:37:26.463Z,12.57
2019-05-28T18:39:53.158Z,12.58
2019-05-28T18:42:21.608Z,12.42
2019-05-28T18:44:48.275Z,12.26
2019-05-28T18:47:14.924Z,12.27
2019-05-28T18:49:41.533Z,12.26
2019-05-28T18:52:08.440Z,12.22
2019-05-28T18:54:35.111Z,12.11
2019-05-28T18:57:02.128Z,12.11
2019-05-28T18:59:28.949Z,12.06
2019-05-28T19:01:58.973Z,12.03
2019-05-28T19:04:25.586Z,11.99
2019-05-28T19:06:52.386Z,11.98
2019-05-28T19:09:19.022Z,11.95
2019-05-28T19:11:45.704Z,11.97
2019-05-28T19:14:12.635Z,11.95
2019-05-28T19:16:39.633Z,12.00
2019-05-28T19:19:06.684Z,12.04
2019-05-28T19:21:33.239Z,12.10
2019-05-28T19:24:00.058Z,12.10
2019-05-28T19:26:26.715Z,12.09
2019-05-28T19:28:53.188Z,12.06
2019-05-28T19:31:19.873Z,12.03
2019-05-28T19:33:46.637Z,12.02
2019-05-28T19:36:13.555Z,11.94
2019-05-28T19:38:45.557Z,11.91
2019-05-28T19:41:10.283Z,11.87
2019-05-28T19:43:37.272Z,11.81
2019-05-28T19:46:04.617Z,11.63
2019-05-28T19:48:31.134Z,11.57
2019-05-28T19:50:57.687Z,11.48
2019-05-28T19:53:24.584Z,11.49
2019-05-28T19:55:51.215Z,11.49
2019-05-28T19:58:18.011Z,11.49
2019-05-28T20:00:44.725Z,11.45
2019-05-28T20:03:11.316Z,11.45
2019-05-28T20:05:37.935Z,11.40
2019-05-28T20:08:04.743Z,11.35
2019-05-28T20:10:31.348Z,11.33
2019-05-28T20:12:58.990Z,11.32
2019-05-28T20:15:26.135Z,11.31
2019-05-28T20:17:54.557Z,11.34
2019-05-28T20:20:21.205Z,11.33
2019-05-28T20:22:47.873Z,11.36
2019-05-28T20:25:14.685Z,11.36
2019-05-28T20:27:41.173Z,11.34
2019-05-28T20:30:09.390Z,11.35
2019-05-28T20:32:36.995Z,11.34
2019-05-28T20:35:05.415Z,11.35
2019-05-28T20:37:32.043Z,11.29
2019-05-28T20:40:03.905Z,11.24
2019-05-28T20:42:31.043Z,11.23
2019-05-28T20:45:02.453Z,11.19
2019-05-28T20:47:26.306Z,11.19
2019-05-28T20:49:53.379Z,11.22
2019-05-28T20:52:19.929Z,11.23
2019-05-28T20:54:46.839Z,11.22
2019-05-28T20:57:13.682Z,11.20
2019-05-28T20:59:40.186Z,11.19
2019-05-28T21:02:06.735Z,11.22
2019-05-28T21:04:33.287Z,11.25
2019-05-28T21:06:59.768Z,11.20
2019-05-28T21:09:26.292Z,11.17
2019-05-28T21:11:54.540Z,11.13
2019-05-28T21:14:21.055Z,11.11
2019-05-28T21:16:48.902Z,11.09
2019-05-28T21:19:15.674Z,11.11
2019-05-28T21:21:42.496Z,11.06
2019-05-28T21:24:10.097Z,11.06
2019-05-28T21:26:36.607Z,11.06
2019-05-28T21:29:03.338Z,11.06
2019-05-28T21:31:29.870Z,11.06
2019-05-28T21:33:57.255Z,11.04
2019-05-28T21:36:24.092Z,11.04
2019-05-28T21:38:51.207Z,11.04
2019-05-28T21:41:17.689Z,11.00
2019-05-28T21:43:44.277Z,10.98
2019-05-28T21:46:10.886Z,10.96
2019-05-28T21:48:37.385Z,10.99
2019-05-28T21:51:03.954Z,11.04
2019-05-28T21:53:31.564Z,11.09
2019-05-28T21:55:59.352Z,11.12
2019-05-28T21:58:26.090Z,11.11
2019-05-28T22:00:55.979Z,11.12
2019-05-28T22:03:22.408Z,11.10
2019-05-28T22:05:48.952Z,11.04
2019-05-28T22:08:15.644Z,11.00
2019-05-28T22:10:43.194Z,10.97
2019-05-28T22:13:21.284Z,10.95
2019-05-28T22:15:38.120Z,10.94
2019-05-28T22:18:05.007Z,10.94
2019-05-28T22:20:31.534Z,10.95
2019-05-28T22:22:58.423Z,10.98
2019-05-28T22:25:24.938Z,11.01
2019-05-28T22:27:51.548Z,11.04
2019-05-28T22:30:18.150Z,11.03
2019-05-28T22:32:44.692Z,11.05
2019-05-28T22:35:11.375Z,11.02
2019-05-28T22:37:38.023Z,11.02
2019-05-28T22:40:06.010Z,11.01
2019-05-28T22:42:32.646Z,11.00
2019-05-28T22:44:59.189Z,11.01
2019-05-28T22:47:26.053Z,10.99
2019-05-28T22:49:52.574Z,11.02
2019-05-28T22:52:19.050Z,11.02
2019-05-28T22:54:45.707Z,11.02
2019-05-28T22:57:12.205Z,11.02
2019-05-28T22:59:38.906Z,11.03
2019-05-28T23:02:06.918Z,11.01
2019-05-28T23:04:33.876Z,11.01
2019-05-28T23:07:01.318Z,10.98
2019-05-28T23:09:28.020Z,10.99
2019-05-28T23:11:54.537Z,11.00
2019-05-28T23:14:22.036Z,11.01
2019-05-28T23:16:48.799Z,11.00
2019-05-28T23:19:15.343Z,11.03
2019-05-28T23:21:41.854Z,10.98
2019-05-28T23:24:09.318Z,10.98
2019-05-28T23:26:36.988Z,10.98
2019-05-28T23:29:03.866Z,11.00
2019-05-28T23:31:30.347Z,10.99
2019-05-28T23:33:56.811Z,10.98
2019-05-28T23:36:23.341Z,10.99
2019-05-28T23:38:50.340Z,10.97
2019-05-28T23:41:16.795Z,10.98
2019-05-28T23:43:43.353Z,10.92
2019-05-28T23:46:10.025Z,10.92
2019-05-28T23:48:36.643Z,10.87
2019-05-28T23:51:04.254Z,10.81
2019-05-28T23:53:30.942Z,10.79
2019-05-28T23:55:57.562Z,10.83
2019-05-28T23:58:24.052Z,10.81
